الصفحة الرئيسية
METAR-TAF:

METAR-TAF

مطار :

Narathiwat, تايلاند

دائرة عرض: 6-31-12N, خط طول: 101-44-36E, ارتفاع: 5 متر

مراقبة الطقس الحالي

تاريخ ووقت الإصدار 7ساعات و 34 دقيقة قبل الساعة 10:00UTC
ريح 4 عقدة من الشمال/الشمال الغربي, الاتجاه يتراوح بين الغرب/الشمال الغربي و الشمال
درجة الحرارة 27°درجة مئوية
الرطوبة 84%
ضغط 1010 hPa
الرؤية 10 كم أو أكثر
غيوم قليلة على ارتفاع 1600 قدم
غيوم متفرقة على ارتفاع 10000 قدم

METAR: VTSC 211000Z 33004KT 300V360 9999 FEW016 SCT100 27/24 Q1010 NOSIG

زمن: 00:34 (17:34 UTC)

توقعات

تاريخ ووقت الإصدار 6ساعات و 34 دقيقة قبل الساعة 11:00UTC
التوقعات صالحة من21 الساعة 12 UTC إلى 22 الساعة 12 UTC
ريح 3 عقدة من الغرب
الرؤية 10 كم أو أكثر
غيوم قليلة على ارتفاع 2000 قدم
مؤقت
من 22 الساعة 02 UTC إلى 22 الساعة 12 UTC
ريح 15 عقدةمن اتجاهات متغيرة تتزايد حتى 25 عقدة
الرؤية: 4000 متر
غيوم قليلة على ارتفاع 1600 قدم, مزنة ركامية.
غيوم متفرقة على ارتفاع 1800 قدم
غيوم مفككة على ارتفاع 10000 قدم
عاصفة رعدية, مطر

TAF: VTSC 211100Z 2112/2212 27003KT 9999 FEW020 TEMPO 2202/2212 VRB15G25KT 4000 TSRA FEW016CB SCT018 BKN100

أرصاد الطقس والتوقعات من أكثر من 4000 مطار (تقارير الطقس للمطار METAR والتنبؤ بالطقس بالمطارTAF).

المحطات المتاحة هي النقط الصفراء والحمراء على الخريطة.

حرك المؤشر فوق النقطة لمعرفة اسم المحطة.

ثم انقر لمعرفة أرصاد وتوقعات الطقس.

لتغيير الخارطة: اضغط على الأزرار الخضراء مع رمز الصليب الأسود للتكبير. على الزر الأخضر مع شرطة للتصغير، أو على الأسهم الخضراء للخرائط المجاورة.


METAR-TAF: